Time;durP1;ratioP1;P1;durP2;ratioP2;P2;SDS_P1;SDS_P2;PMS_P1;PMS_P2;Temp;Humidity;BMP_temperature;BMP_pressure;BME280_temperature;BME280_humidity;BME280_pressure;Samples;Min_cycle;Max_cycle;Signal;HPM_P1;HPM_P2
2022/03/07 00:00:09;;;;;;;7.80;4.73;;;4.30;55.60;;;;;;4920365;29;20027;-74
2022/03/07 00:02:35;;;;;;;9.70;4.63;;;4.30;55.40;;;;;;4937638;29;20036;-74
2022/03/07 00:05:01;;;;;;;8.07;4.90;;;4.30;54.70;;;;;;4936541;29;20222;-75
2022/03/07 00:07:27;;;;;;;8.13;4.80;;;4.30;55.70;;;;;;4908357;29;20036;-74
2022/03/07 00:09:52;;;;;;;7.83;4.77;;;4.30;55.40;;;;;;4934211;29;20027;-75
2022/03/07 00:12:18;;;;;;;10.33;5.47;;;4.30;56.00;;;;;;4918087;29;20054;-75
2022/03/07 00:14:43;;;;;;;8.00;5.00;;;4.20;56.40;;;;;;4923254;29;20028;-74
2022/03/07 00:17:09;;;;;;;10.13;4.93;;;4.20;55.70;;;;;;4919268;29;20023;-74
2022/03/07 00:19:34;;;;;;;6.87;5.13;;;4.20;56.50;;;;;;4919290;29;20080;-73
2022/03/07 00:22:00;;;;;;;9.07;5.07;;;4.20;56.40;;;;;;4919101;29;20031;-74
2022/03/07 00:24:26;;;;;;;7.80;4.97;;;4.20;56.20;;;;;;4936134;29;20115;-73
2022/03/07 00:26:51;;;;;;;8.83;5.10;;;4.20;56.00;;;;;;4920994;29;20115;-75
2022/03/07 00:29:17;;;;;;;7.50;4.87;;;4.20;56.80;;;;;;4920059;29;20658;-74
2022/03/07 00:31:44;;;;;;;7.83;4.80;;;4.10;56.80;;;;;;4919854;29;20083;-75
2022/03/07 00:34:10;;;;;;;6.77;5.33;;;4.10;57.40;;;;;;4920021;29;20031;-76
2022/03/07 00:36:35;;;;;;;8.43;4.90;;;4.10;56.80;;;;;;4920637;29;20028;-76
2022/03/07 00:39:01;;;;;;;6.47;4.90;;;4.10;57.40;;;;;;4904986;29;20040;-74
2022/03/07 00:41:26;;;;;;;8.73;5.10;;;4.10;57.10;;;;;;4919777;29;20059;-75
2022/03/07 00:43:52;;;;;;;7.57;4.53;;;4.00;57.60;;;;;;4919315;29;20114;-75
2022/03/07 00:46:18;;;;;;;6.83;4.80;;;4.00;57.80;;;;;;4919288;29;20569;-75
2022/03/07 00:48:43;;;;;;;7.07;4.83;;;4.00;58.20;;;;;;4919807;29;20028;-74
2022/03/07 00:51:09;;;;;;;9.33;5.50;;;4.00;58.20;;;;;;4918472;29;20050;-75
2022/03/07 00:53:34;;;;;;;9.27;5.07;;;4.00;58.00;;;;;;4918900;29;20032;-75
2022/03/07 00:56:00;;;;;;;8.10;5.10;;;3.90;57.80;;;;;;4929325;29;20405;-74
2022/03/07 00:58:26;;;;;;;8.27;5.23;;;3.90;58.40;;;;;;4930055;29;20036;-74
2022/03/07 01:00:51;;;;;;;7.10;4.40;;;4.00;58.70;;;;;;4928382;29;20028;-78
2022/03/07 01:03:17;;;;;;;69.00;31.13;;;4.00;58.90;;;;;;4922435;29;20508;-77
2022/03/07 01:05:44;;;;;;;19.17;11.13;;;4.00;58.90;;;;;;4919393;29;20043;-76
2022/03/07 01:08:10;;;;;;;10.33;6.57;;;4.10;59.20;;;;;;4937402;29;20019;-77
2022/03/07 01:10:36;;;;;;;9.87;5.30;;;4.10;58.30;;;;;;4937075;29;20082;-76
2022/03/07 01:13:02;;;;;;;9.70;5.10;;;4.10;58.20;;;;;;4917841;29;20450;-77
2022/03/07 01:15:28;;;;;;;6.93;5.07;;;4.00;58.70;;;;;;4918872;29;20473;-76
2022/03/07 01:17:54;;;;;;;6.87;4.53;;;3.90;58.20;;;;;;4918191;29;20385;-76
2022/03/07 01:20:21;;;;;;;9.43;5.13;;;3.80;58.30;;;;;;4919438;29;20062;-78
2022/03/07 01:22:47;;;;;;;7.97;4.93;;;3.80;58.40;;;;;;4935979;29;20028;-77
2022/03/07 01:25:12;;;;;;;8.43;4.63;;;3.70;58.70;;;;;;4921425;29;20054;-77
2022/03/07 01:27:38;;;;;;;9.20;5.00;;;3.70;60.10;;;;;;4919426;29;20058;-77
2022/03/07 01:30:05;;;;;;;6.90;4.70;;;3.60;59.60;;;;;;4918970;29;20112;-77
2022/03/07 01:32:31;;;;;;;6.83;4.47;;;3.60;60.50;;;;;;4919567;29;20043;-77
2022/03/07 01:34:57;;;;;;;8.57;5.27;;;3.60;60.90;;;;;;4918536;29;20032;-77
2022/03/07 01:37:22;;;;;;;6.90;4.70;;;3.50;61.00;;;;;;4919618;29;20114;-77
2022/03/07 01:39:48;;;;;;;8.17;4.87;;;3.50;61.30;;;;;;4919057;29;20031;-77
2022/03/07 01:42:14;;;;;;;6.70;4.67;;;3.50;62.50;;;;;;4919548;29;20388;-77
2022/03/07 01:44:39;;;;;;;9.43;5.00;;;3.50;61.30;;;;;;4936499;29;20377;-77
2022/03/07 01:47:06;;;;;;;7.90;4.77;;;3.50;61.50;;;;;;4934597;29;20039;-76
2022/03/07 01:49:31;;;;;;;9.33;5.27;;;3.50;62.40;;;;;;4918249;29;20032;-76
2022/03/07 01:51:58;;;;;;;7.57;4.60;;;3.40;62.50;;;;;;4918229;29;20079;-76
2022/03/07 01:54:24;;;;;;;7.53;4.83;;;3.40;63.40;;;;;;4918845;29;20035;-75
2022/03/07 01:56:51;;;;;;;8.40;4.73;;;3.40;63.40;;;;;;4935247;29;20127;-76
2022/03/07 01:59:19;;;;;;;9.40;4.43;;;3.30;63.20;;;;;;4919355;29;20034;-76
2022/03/07 02:01:45;;;;;;;7.33;4.43;;;3.30;63.30;;;;;;4919059;29;20122;-77
2022/03/07 02:04:11;;;;;;;8.23;4.73;;;3.20;63.80;;;;;;4918546;29;20495;-76
2022/03/07 02:06:41;;;;;;;8.30;4.70;;;3.20;64.30;;;;;;4935025;29;20110;-75
2022/03/07 02:09:08;;;;;;;8.80;5.13;;;3.10;64.80;;;;;;4934717;29;20024;-76
2022/03/07 02:11:35;;;;;;;6.93;4.07;;;3.00;64.70;;;;;;4934799;29;20159;-75
2022/03/07 02:14:24;;;;;;;6.67;5.17;;;2.90;65.30;;;;;;4918263;29;20028;-76
2022/03/07 02:16:50;;;;;;;6.73;4.97;;;2.90;66.30;;;;;;4934981;29;20032;-75
2022/03/07 02:19:17;;;;;;;6.67;4.67;;;2.80;65.80;;;;;;4918959;29;20469;-77
2022/03/07 02:21:46;;;;;;;8.77;4.57;;;2.80;65.30;;;;;;4918977;29;20028;-76
2022/03/07 02:24:12;;;;;;;7.40;5.00;;;2.70;66.50;;;;;;4918590;29;20046;-77
2022/03/07 02:26:39;;;;;;;8.83;4.93;;;2.70;66.70;;;;;;4935801;29;20036;-76
2022/03/07 02:29:05;;;;;;;10.97;5.43;;;2.60;67.00;;;;;;4934263;29;20124;-76
2022/03/07 02:31:30;;;;;;;7.00;4.33;;;2.60;67.70;;;;;;4917031;29;20138;-75
2022/03/07 02:33:56;;;;;;;7.80;4.50;;;2.50;68.50;;;;;;4934332;29;20038;-76
2022/03/07 02:36:22;;;;;;;6.67;4.30;;;2.50;68.90;;;;;;4917304;29;20059;-77
2022/03/07 02:38:48;;;;;;;7.40;4.77;;;2.40;69.10;;;;;;4917631;29;20035;-77
2022/03/07 02:41:14;;;;;;;8.63;4.73;;;2.40;68.60;;;;;;4918671;29;20031;-77
2022/03/07 02:43:39;;;;;;;6.87;4.43;;;2.40;68.70;;;;;;4920452;29;20039;-77
2022/03/07 02:46:05;;;;;;;7.37;4.63;;;2.40;68.70;;;;;;4917615;29;20488;-77
2022/03/07 02:48:31;;;;;;;9.53;5.00;;;2.40;68.30;;;;;;4917697;29;20393;-77
2022/03/07 02:50:58;;;;;;;6.83;4.77;;;2.40;68.90;;;;;;4925920;29;20480;-76
2022/03/07 02:53:24;;;;;;;6.73;4.27;;;2.30;69.90;;;;;;4908653;29;20036;-75
2022/03/07 02:55:50;;;;;;;10.47;4.70;;;2.20;69.90;;;;;;4925060;29;20029;-75
2022/03/07 02:58:15;;;;;;;7.70;4.40;;;2.30;69.50;;;;;;4911838;29;20084;-76
2022/03/07 03:00:41;;;;;;;6.63;4.50;;;2.20;69.70;;;;;;4907401;29;20029;-76
2022/03/07 03:03:07;;;;;;;6.90;4.90;;;2.20;69.10;;;;;;4910928;29;20091;-75
2022/03/07 03:05:32;;;;;;;9.00;4.93;;;2.10;70.20;;;;;;4915805;29;20488;-76
2022/03/07 03:07:58;;;;;;;7.50;4.90;;;2.10;70.40;;;;;;4905040;29;20776;-76
2022/03/07 03:10:24;;;;;;;7.33;4.40;;;2.00;70.60;;;;;;4907773;29;20059;-76
2022/03/07 03:12:49;;;;;;;8.43;4.77;;;2.00;70.60;;;;;;4906284;29;20039;-76
2022/03/07 03:15:15;;;;;;;8.00;4.87;;;2.00;70.20;;;;;;4926614;29;20027;-75
2022/03/07 03:17:42;;;;;;;8.77;4.77;;;2.00;70.20;;;;;;4931652;29;20079;-75
2022/03/07 03:20:12;;;;;;;7.60;4.90;;;2.00;70.70;;;;;;4918067;29;20102;-76
2022/03/07 03:22:39;;;;;;;7.87;4.60;;;1.90;71.30;;;;;;4935263;29;20209;-75
2022/03/07 03:25:06;;;;;;;6.73;4.73;;;1.90;71.60;;;;;;4917585;29;20046;-75
2022/03/07 03:27:31;;;;;;;7.97;5.17;;;1.80;71.20;;;;;;4918165;29;20028;-76
2022/03/07 03:29:57;;;;;;;9.87;4.93;;;1.70;71.40;;;;;;4917584;29;20035;-74
2022/03/07 03:32:25;;;;;;;11.07;4.83;;;1.70;71.30;;;;;;4917945;29;20106;-76
2022/03/07 03:34:50;;;;;;;8.93;4.93;;;1.70;70.50;;;;;;4917731;29;20163;-75
2022/03/07 03:37:16;;;;;;;8.50;4.80;;;1.70;70.50;;;;;;4934976;29;20111;-76
2022/03/07 03:39:41;;;;;;;7.10;5.17;;;1.70;70.50;;;;;;4917828;29;20027;-75
2022/03/07 03:42:07;;;;;;;7.47;4.53;;;1.70;71.00;;;;;;4917714;29;20035;-75
2022/03/07 03:44:33;;;;;;;11.00;5.63;;;1.60;71.60;;;;;;4918269;29;20028;-75
2022/03/07 03:46:58;;;;;;;9.43;5.53;;;1.60;71.20;;;;;;4917069;29;20031;-75
2022/03/07 03:49:24;;;;;;;9.20;5.30;;;1.50;72.00;;;;;;4918048;29;20079;-75
2022/03/07 03:51:49;;;;;;;9.53;5.17;;;1.50;73.40;;;;;;4917711;29;20118;-75
2022/03/07 03:54:15;;;;;;;8.43;5.43;;;1.50;73.30;;;;;;4918082;29;20504;-75
2022/03/07 03:56:41;;;;;;;9.23;5.70;;;1.50;73.30;;;;;;4917699;29;20469;-75
2022/03/07 03:59:07;;;;;;;13.73;4.83;;;1.50;74.00;;;;;;4917552;29;20028;-76
2022/03/07 04:01:32;;;;;;;7.93;5.27;;;1.50;75.00;;;;;;4935176;29;20114;-75
2022/03/07 04:03:58;;;;;;;8.90;4.97;;;1.50;76.20;;;;;;4934664;29;20457;-75
2022/03/07 04:06:24;;;;;;;7.30;5.23;;;1.40;77.50;;;;;;4934948;29;20111;-76
2022/03/07 04:08:50;;;;;;;9.00;5.27;;;1.40;80.00;;;;;;4934985;29;20438;-75
2022/03/07 04:11:16;;;;;;;6.93;4.47;;;1.30;81.60;;;;;;4934515;29;20031;-75
2022/03/07 04:13:42;;;;;;;10.20;5.20;;;1.30;83.50;;;;;;4934647;29;20038;-75
2022/03/07 04:16:07;;;;;;;8.17;4.37;;;1.30;84.60;;;;;;4917459;29;20146;-75
2022/03/07 04:18:33;;;;;;;6.73;4.17;;;1.30;86.60;;;;;;4918038;29;20384;-75
2022/03/07 04:20:59;;;;;;;7.33;4.70;;;1.30;87.90;;;;;;4916918;29;20023;-76
2022/03/07 04:23:25;;;;;;;10.73;4.53;;;1.30;89.00;;;;;;4917647;29;20086;-75
2022/03/07 04:25:51;;;;;;;8.10;4.57;;;1.20;90.10;;;;;;4917047;29;20031;-75
2022/03/07 04:28:17;;;;;;;7.00;4.23;;;1.20;90.60;;;;;;4934579;29;20375;-75
2022/03/07 04:30:42;;;;;;;6.60;3.93;;;1.20;90.50;;;;;;4919801;29;20024;-75
2022/03/07 04:33:09;;;;;;;7.77;3.80;;;1.20;90.90;;;;;;4920704;29;20386;-75
2022/03/07 04:35:36;;;;;;;7.17;4.17;;;1.10;90.70;;;;;;4937822;29;20034;-74
2022/03/07 04:38:01;;;;;;;8.20;3.73;;;1.20;90.90;;;;;;4937479;29;20032;-75
2022/03/07 04:40:28;;;;;;;6.53;3.67;;;1.10;91.20;;;;;;4921115;29;20035;-75
2022/03/07 04:42:56;;;;;;;7.57;3.70;;;1.10;91.50;;;;;;4920257;29;20367;-75
2022/03/07 04:45:22;;;;;;;7.43;3.93;;;1.10;91.40;;;;;;4920807;29;20032;-75
2022/03/07 04:47:48;;;;;;;7.43;3.70;;;1.00;92.00;;;;;;4937741;29;20036;-75
2022/03/07 04:50:14;;;;;;;5.87;3.77;;;1.00;91.90;;;;;;4920278;29;20079;-75
2022/03/07 04:52:41;;;;;;;6.07;3.50;;;1.00;92.30;;;;;;4920702;29;20066;-75
2022/03/07 04:55:08;;;;;;;5.13;3.23;;;1.00;92.50;;;;;;4920187;29;20043;-76
2022/03/07 04:57:34;;;;;;;7.30;3.60;;;0.90;92.70;;;;;;4921198;29;20079;-76
2022/03/07 04:59:59;;;;;;;6.07;3.40;;;1.00;92.50;;;;;;4936818;29;20035;-76
2022/03/07 05:02:25;;;;;;;5.70;3.57;;;1.00;92.50;;;;;;4920784;29;20046;-76
2022/03/07 05:04:50;;;;;;;6.63;3.93;;;0.90;92.80;;;;;;4920615;29;20061;-76
2022/03/07 05:07:16;;;;;;;6.93;3.87;;;0.90;92.80;;;;;;4920392;29;20060;-76
2022/03/07 05:09:42;;;;;;;7.53;3.37;;;0.90;93.10;;;;;;4920789;29;20472;-76
2022/03/07 05:12:08;;;;;;;5.23;3.10;;;0.90;93.30;;;;;;4919869;29;20040;-77
2022/03/07 05:14:34;;;;;;;5.63;3.40;;;0.80;93.30;;;;;;4920845;29;20119;-76
2022/03/07 05:16:59;;;;;;;6.40;3.20;;;0.90;93.20;;;;;;4920230;29;20066;-75
2022/03/07 05:19:25;;;;;;;5.23;3.50;;;0.80;93.30;;;;;;4920495;29;20027;-76
2022/03/07 05:21:50;;;;;;;4.87;3.00;;;0.80;93.00;;;;;;4920488;29;20033;-75
2022/03/07 05:24:16;;;;;;;5.53;3.03;;;0.80;92.80;;;;;;4919768;29;20425;-75
2022/03/07 05:26:42;;;;;;;7.47;3.43;;;0.80;92.60;;;;;;4920112;29;20397;-75
2022/03/07 05:29:07;;;;;;;7.20;3.30;;;0.80;92.70;;;;;;4919851;29;20130;-76
2022/03/07 05:31:33;;;;;;;5.53;3.43;;;0.80;92.50;;;;;;4919985;29;20103;-75
2022/03/07 05:33:59;;;;;;;5.13;3.20;;;0.80;92.20;;;;;;4919471;29;20044;-76
2022/03/07 05:36:25;;;;;;;5.10;3.10;;;0.80;92.10;;;;;;4920164;29;20035;-75
2022/03/07 05:38:50;;;;;;;7.67;3.03;;;0.80;92.10;;;;;;4920245;29;20028;-75
2022/03/07 05:41:16;;;;;;;6.70;3.30;;;0.80;91.90;;;;;;4918383;29;20024;-76
2022/03/07 05:43:41;;;;;;;8.07;3.40;;;0.70;92.00;;;;;;4937024;29;20033;-76
2022/03/07 05:46:07;;;;;;;7.07;3.10;;;0.70;92.10;;;;;;4919335;29;20156;-76
2022/03/07 05:48:33;;;;;;;4.97;3.20;;;0.70;91.90;;;;;;4936400;29;20028;-75
2022/03/07 05:50:59;;;;;;;5.87;3.33;;;0.70;92.20;;;;;;4919036;29;20027;-76
2022/03/07 05:53:24;;;;;;;5.47;3.13;;;0.70;91.90;;;;;;4919648;29;20134;-76
2022/03/07 05:55:51;;;;;;;5.30;3.10;;;0.70;91.90;;;;;;4919440;29;20130;-75
2022/03/07 05:58:17;;;;;;;6.30;3.70;;;0.70;91.70;;;;;;4935774;29;20031;-76
2022/03/07 06:00:43;;;;;;;5.23;2.90;;;0.60;91.70;;;;;;4919677;29;20027;-75
2022/03/07 06:03:08;;;;;;;5.53;3.63;;;0.60;91.70;;;;;;4918639;29;20035;-75
2022/03/07 06:05:34;;;;;;;5.97;3.20;;;0.60;91.90;;;;;;4919373;29;20059;-76
2022/03/07 06:08:00;;;;;;;5.47;3.17;;;0.70;91.90;;;;;;4935583;29;20058;-76
2022/03/07 06:10:26;;;;;;;5.03;3.27;;;0.70;91.80;;;;;;4919673;29;20042;-75
2022/03/07 06:12:52;;;;;;;8.17;3.30;;;0.70;91.90;;;;;;4936365;29;20452;-75
2022/03/07 06:15:20;;;;;;;6.30;3.30;;;0.70;91.90;;;;;;4918535;29;20031;-75
2022/03/07 06:17:54;;;;;;;6.10;3.40;;;0.70;91.90;;;;;;4919044;29;20051;-75
2022/03/07 06:20:22;;;;;;;5.57;3.40;;;0.70;91.60;;;;;;4935500;29;20034;-74
2022/03/07 06:22:49;;;;;;;4.97;3.27;;;0.80;91.50;;;;;;4936270;29;20116;-76
2022/03/07 06:25:15;;;;;;;6.10;3.53;;;0.80;91.80;;;;;;4918306;29;20395;-76
2022/03/07 06:27:41;;;;;;;5.70;3.13;;;0.80;91.50;;;;;;4918897;29;20421;-75
2022/03/07 06:30:08;;;;;;;6.07;3.90;;;0.80;91.90;;;;;;4918382;29;20171;-75
2022/03/07 06:32:37;;;;;;;6.10;3.70;;;0.80;90.90;;;;;;4918671;29;20487;-75
2022/03/07 06:35:04;;;;;;;7.33;3.40;;;0.80;91.00;;;;;;4918371;29;20028;-75
2022/03/07 06:37:30;;;;;;;8.07;3.90;;;0.80;91.20;;;;;;4918970;29;20389;-75
2022/03/07 06:39:56;;;;;;;6.10;3.70;;;0.90;90.60;;;;;;4918885;29;20028;-75
2022/03/07 06:42:22;;;;;;;6.10;3.57;;;1.00;90.50;;;;;;4935311;29;20040;-75
2022/03/07 06:44:47;;;;;;;6.27;3.60;;;1.00;90.50;;;;;;4935776;29;20038;-75
2022/03/07 06:47:13;;;;;;;7.17;3.63;;;1.00;89.60;;;;;;4917937;29;20062;-75
2022/03/07 06:49:40;;;;;;;7.43;3.80;;;1.00;88.90;;;;;;4918428;29;20055;-75
2022/03/07 06:52:06;;;;;;;9.13;4.47;;;1.10;89.40;;;;;;4917577;29;20040;-75
2022/03/07 06:54:32;;;;;;;6.33;3.80;;;1.20;88.30;;;;;;4918832;29;20125;-75
2022/03/07 06:56:57;;;;;;;7.50;3.87;;;1.20;87.40;;;;;;4918512;29;20031;-75
2022/03/07 06:59:23;;;;;;;8.37;3.97;;;1.30;88.60;;;;;;4917983;29;20038;-75
2022/03/07 07:01:49;;;;;;;8.07;3.80;;;1.30;89.10;;;;;;4918392;29;20090;-75
2022/03/07 07:04:15;;;;;;;8.67;4.40;;;1.40;89.80;;;;;;4917692;29;20127;-76
2022/03/07 07:06:40;;;;;;;7.23;4.13;;;1.40;89.20;;;;;;4918135;29;20098;-76
2022/03/07 07:09:06;;;;;;;8.63;4.53;;;1.50;88.60;;;;;;4917337;29;20457;-76
2022/03/07 07:11:32;;;;;;;8.97;4.97;;;1.50;87.70;;;;;;4935511;29;20031;-76
2022/03/07 07:13:57;;;;;;;7.90;4.83;;;1.60;86.90;;;;;;4935167;29;20384;-76
2022/03/07 07:16:23;;;;;;;6.97;4.23;;;1.60;85.90;;;;;;4917159;29;20055;-76
2022/03/07 07:18:49;;;;;;;7.50;4.23;;;1.70;84.00;;;;;;4935146;29;20039;-76
2022/03/07 07:21:14;;;;;;;9.40;4.93;;;1.70;84.90;;;;;;4934771;29;20032;-76
2022/03/07 07:23:40;;;;;;;10.67;5.17;;;1.80;86.50;;;;;;4935017;29;20028;-76
2022/03/07 07:26:06;;;;;;;8.70;3.93;;;1.80;84.20;;;;;;4929661;29;20036;-76
2022/03/07 07:28:31;;;;;;;8.90;4.63;;;1.90;84.10;;;;;;4935799;29;20024;-76
2022/03/07 07:30:57;;;;;;;7.57;4.40;;;2.00;85.00;;;;;;4935735;29;20052;-76
2022/03/07 07:33:23;;;;;;;9.20;4.80;;;2.00;82.10;;;;;;4952760;29;20039;-76
2022/03/07 07:35:49;;;;;;;7.93;4.43;;;2.10;83.60;;;;;;4952521;29;20024;-76
2022/03/07 07:38:14;;;;;;;8.10;4.97;;;2.00;79.40;;;;;;4935717;29;20408;-76
2022/03/07 07:40:40;;;;;;;7.60;4.00;;;2.10;79.30;;;;;;4952811;29;20055;-75
2022/03/07 07:43:06;;;;;;;9.73;4.63;;;2.10;79.30;;;;;;4935731;29;20055;-77
2022/03/07 07:45:32;;;;;;;7.80;4.73;;;2.10;79.20;;;;;;4935547;29;20035;-75
2022/03/07 07:47:59;;;;;;;8.87;4.53;;;2.10;80.80;;;;;;4944415;29;20038;-75
2022/03/07 07:50:25;;;;;;;8.17;4.40;;;2.10;78.60;;;;;;4917428;29;20032;-75
2022/03/07 07:52:51;;;;;;;8.90;4.47;;;2.10;73.00;;;;;;4916761;29;20535;-75
2022/03/07 07:55:17;;;;;;;7.57;3.97;;;2.10;72.70;;;;;;4933513;29;20032;-75
2022/03/07 07:57:42;;;;;;;8.80;4.40;;;2.10;71.20;;;;;;4916960;29;20452;-75
2022/03/07 08:00:10;;;;;;;7.77;4.30;;;2.10;72.70;;;;;;4933349;29;20493;-75
2022/03/07 08:02:36;;;;;;;7.83;4.47;;;2.10;73.90;;;;;;4934282;29;20030;-75
2022/03/07 08:05:03;;;;;;;9.20;4.57;;;2.10;68.30;;;;;;4917948;29;20024;-76
2022/03/07 08:07:29;;;;;;;8.83;4.53;;;2.10;68.70;;;;;;4920457;29;20035;-74
2022/03/07 08:09:55;;;;;;;6.57;4.27;;;2.10;70.80;;;;;;4937585;29;20028;-76
2022/03/07 08:12:20;;;;;;;8.13;4.70;;;2.10;70.90;;;;;;4936834;29;20051;-76
2022/03/07 08:14:46;;;;;;;9.60;4.73;;;2.20;72.30;;;;;;4920324;29;20536;-75
2022/03/07 08:17:12;;;;;;;9.00;5.00;;;2.20;70.90;;;;;;4919623;29;20031;-76
2022/03/07 08:19:38;;;;;;;9.43;4.73;;;2.20;71.80;;;;;;4920202;29;20059;-76
2022/03/07 08:22:04;;;;;;;7.03;4.17;;;2.30;73.80;;;;;;4937645;29;20051;-77
2022/03/07 08:24:30;;;;;;;7.80;4.83;;;2.30;72.00;;;;;;4938698;29;20032;-76
2022/03/07 08:26:57;;;;;;;9.23;4.50;;;2.30;72.60;;;;;;4921525;29;20091;-75
2022/03/07 08:29:23;;;;;;;8.80;5.13;;;2.30;71.10;;;;;;4937798;29;20244;-75
2022/03/07 08:31:49;;;;;;;9.37;5.00;;;2.30;73.40;;;;;;4920854;29;20058;-76
2022/03/07 08:34:15;;;;;;;9.07;4.77;;;2.30;71.90;;;;;;4920716;29;20028;-76
2022/03/07 08:36:41;;;;;;;8.83;4.77;;;2.40;74.90;;;;;;4921135;29;20031;-75
2022/03/07 08:39:06;;;;;;;9.17;5.37;;;2.40;71.10;;;;;;4937503;29;20192;-75
2022/03/07 08:41:34;;;;;;;10.53;5.23;;;2.40;70.00;;;;;;4937898;29;20392;-76
2022/03/07 08:44:00;;;;;;;7.80;4.73;;;2.40;71.20;;;;;;4920971;29;20435;-76
2022/03/07 08:46:26;;;;;;;9.17;5.40;;;2.40;72.00;;;;;;4920377;29;20430;-75
2022/03/07 08:48:52;;;;;;;8.63;5.27;;;2.50;74.80;;;;;;4920751;29;20058;-77
2022/03/07 08:51:17;;;;;;;8.80;5.00;;;2.50;71.80;;;;;;4920208;29;20032;-76
2022/03/07 08:53:43;;;;;;;11.20;5.20;;;2.60;72.90;;;;;;4920848;29;20146;-75
2022/03/07 08:56:09;;;;;;;9.33;4.97;;;2.60;73.90;;;;;;4920375;29;20031;-76
2022/03/07 08:58:35;;;;;;;9.13;5.27;;;2.70;72.80;;;;;;4937816;29;20131;-76
2022/03/07 09:01:00;;;;;;;10.77;5.70;;;2.70;71.10;;;;;;4939166;29;20381;-75
2022/03/07 09:03:26;;;;;;;8.90;5.50;;;2.70;72.20;;;;;;4919913;29;20134;-75
2022/03/07 09:05:52;;;;;;;10.90;5.47;;;2.80;71.60;;;;;;4920351;29;20063;-76
2022/03/07 09:08:17;;;;;;;9.67;5.30;;;2.80;72.80;;;;;;4920077;29;20139;-76
2022/03/07 09:10:43;;;;;;;11.57;5.83;;;2.90;73.20;;;;;;4914975;29;20111;-74
2022/03/07 09:13:08;;;;;;;9.70;5.30;;;2.90;72.90;;;;;;4900613;29;20442;-75
2022/03/07 09:15:34;;;;;;;9.60;5.80;;;2.90;71.50;;;;;;4900773;29;20024;-74
2022/03/07 09:18:00;;;;;;;11.90;5.80;;;3.00;73.60;;;;;;4900867;29;20032;-74
2022/03/07 09:20:26;;;;;;;14.20;5.87;;;3.00;73.00;;;;;;4903277;29;20050;-74
2022/03/07 09:22:52;;;;;;;12.50;5.00;;;3.10;71.60;;;;;;4922224;29;20036;-75
2022/03/07 09:25:18;;;;;;;8.53;5.03;;;3.20;72.70;;;;;;4917426;29;20051;-74
2022/03/07 09:27:44;;;;;;;9.30;5.20;;;3.20;73.30;;;;;;4902047;29;20067;-75
2022/03/07 09:30:12;;;;;;;10.03;5.23;;;3.20;71.40;;;;;;4901254;29;20506;-76
2022/03/07 09:32:38;;;;;;;9.67;5.23;;;3.30;70.60;;;;;;4936690;29;20055;-76
2022/03/07 09:35:04;;;;;;;10.13;5.60;;;3.30;72.10;;;;;;4920883;29;20427;-76
2022/03/07 09:37:30;;;;;;;12.53;6.03;;;3.40;71.30;;;;;;4935996;29;20106;-76
2022/03/07 09:39:55;;;;;;;10.17;5.70;;;3.40;70.90;;;;;;4919808;29;20172;-77
2022/03/07 09:42:21;;;;;;;8.73;5.47;;;3.50;69.30;;;;;;4919195;29;20036;-76
2022/03/07 09:44:48;;;;;;;10.57;5.57;;;3.50;68.90;;;;;;4936587;29;20389;-75
2022/03/07 09:47:14;;;;;;;9.47;5.53;;;3.50;68.10;;;;;;4919066;29;20027;-76
2022/03/07 09:49:40;;;;;;;13.03;6.33;;;3.60;71.20;;;;;;4936607;29;20038;-75
2022/03/07 09:52:06;;;;;;;13.27;5.97;;;3.60;69.40;;;;;;4919636;29;20036;-75
2022/03/07 09:54:32;;;;;;;9.67;5.57;;;3.70;67.70;;;;;;4918804;29;20039;-75
2022/03/07 09:56:58;;;;;;;9.40;5.83;;;3.70;66.50;;;;;;4936537;29;20034;-74
2022/03/07 09:59:25;;;;;;;10.90;6.23;;;3.60;65.90;;;;;;4918827;29;20139;-75
2022/03/07 10:15:20;;;;;;;9.53;5.80;;;4.10;62.90;;;;;;5083623;23;20443;-77
2022/03/07 10:17:48;;;;;;;12.70;7.03;;;4.30;62.20;;;;;;4939251;29;20031;-77
2022/03/07 10:20:15;;;;;;;11.53;6.20;;;4.50;63.00;;;;;;4938516;29;20460;-77
2022/03/07 10:22:46;;;;;;;10.57;6.03;;;4.60;62.50;;;;;;4937320;29;20114;-77
2022/03/07 10:25:12;;;;;;;11.00;5.97;;;4.50;61.40;;;;;;4938580;29;20032;-77
2022/03/07 10:27:40;;;;;;;10.77;5.90;;;4.60;60.70;;;;;;4930582;29;20068;-77
2022/03/07 10:30:10;;;;;;;9.80;6.10;;;4.60;58.70;;;;;;4935536;28;20027;-77
2022/03/07 10:32:35;;;;;;;11.70;6.20;;;4.80;58.20;;;;;;4927447;29;20043;-75
2022/03/07 10:35:01;;;;;;;10.43;5.87;;;5.00;58.20;;;;;;4937524;29;20027;-77
2022/03/07 10:37:38;;;;;;;9.77;6.30;;;5.10;57.20;;;;;;4937122;29;20123;-77
2022/03/07 10:40:16;;;;;;;12.97;6.80;;;5.20;56.80;;;;;;4951149;29;20022;-77
2022/03/07 10:42:47;;;;;;;10.33;6.13;;;5.30;57.00;;;;;;4937224;29;20102;-78
2022/03/07 10:45:13;;;;;;;10.33;6.20;;;5.30;56.00;;;;;;4955008;29;20042;-77
2022/03/07 10:47:39;;;;;;;11.20;6.53;;;5.40;55.70;;;;;;4954634;29;20077;-78
2022/03/07 10:50:06;;;;;;;9.90;6.00;;;5.40;56.40;;;;;;4937462;29;20051;-78
2022/03/07 10:52:44;;;;;;;10.57;5.93;;;5.40;54.90;;;;;;4936681;29;20031;-77
2022/03/07 10:55:12;;;;;;;10.20;6.17;;;5.20;55.00;;;;;;4937462;29;20050;-77
2022/03/07 10:57:40;;;;;;;11.20;6.53;;;5.10;54.90;;;;;;4953170;29;20023;-77
2022/03/07 11:00:14;;;;;;;10.33;6.23;;;5.10;56.30;;;;;;4936891;29;20136;-78
2022/03/07 11:02:41;;;;;;;10.80;6.20;;;5.20;55.50;;;;;;4953596;29;20033;-77
2022/03/07 11:05:07;;;;;;;11.10;5.90;;;5.20;55.10;;;;;;4943749;29;20032;-77
2022/03/07 11:07:45;;;;;;;11.87;6.17;;;5.30;55.90;;;;;;4935984;29;20031;-77
2022/03/07 11:10:12;;;;;;;9.53;5.97;;;5.30;54.80;;;;;;4937173;29;20059;-77
2022/03/07 11:12:38;;;;;;;10.10;5.80;;;5.30;56.20;;;;;;4936090;29;20053;-75
2022/03/07 11:15:09;;;;;;;9.47;5.73;;;5.40;55.30;;;;;;4936361;29;20169;-77
2022/03/07 11:17:44;;;;;;;10.17;6.30;;;5.40;56.60;;;;;;4937557;29;20028;-80
2022/03/07 11:20:16;;;;;;;10.97;6.03;;;5.40;56.10;;;;;;4937756;29;20121;-77
2022/03/07 11:22:41;;;;;;;12.57;6.18;;;5.50;55.10;;;;;;4936476;29;20427;-76
2022/03/07 11:25:08;;;;;;;11.20;5.73;;;5.40;54.20;;;;;;4953782;29;20163;-77
2022/03/07 11:27:36;;;;;;;9.90;5.80;;;5.50;56.50;;;;;;4936003;29;20161;-77
2022/03/07 11:30:18;;;;;;;9.27;6.23;;;5.40;54.60;;;;;;4927654;29;20059;-77
2022/03/07 11:32:44;;;;;;;9.52;6.07;;;5.40;54.00;;;;;;4937153;29;20062;-77
2022/03/07 11:35:11;;;;;;;9.97;6.13;;;5.40;54.10;;;;;;4938112;29;20027;-78
2022/03/07 11:37:37;;;;;;;13.03;6.50;;;5.40;55.00;;;;;;4937061;29;20027;-78
2022/03/07 11:40:24;;;;;;;8.90;6.27;;;5.40;53.90;;;;;;4929440;29;20031;-76
2022/03/07 11:42:51;;;;;;;9.13;5.50;;;5.50;55.60;;;;;;4940378;29;20040;-77
2022/03/07 11:45:22;;;;;;;9.97;5.73;;;5.50;55.30;;;;;;4957573;29;20027;-77
2022/03/07 11:47:49;;;;;;;9.47;5.90;;;5.50;53.10;;;;;;4939755;29;20037;-77
2022/03/07 11:50:18;;;;;;;10.33;6.07;;;5.50;54.70;;;;;;4937102;29;20477;-77
2022/03/07 11:52:44;;;;;;;9.97;6.13;;;5.50;54.40;;;;;;4925502;29;20048;-78
2022/03/07 11:55:19;;;;;;;10.03;6.40;;;5.50;53.80;;;;;;4940637;29;20035;-80
2022/03/07 11:57:58;;;;;;;9.50;6.30;;;5.50;53.80;;;;;;4940885;29;20027;-79
2022/03/07 12:00:27;;;;;;;11.53;6.00;;;5.60;54.70;;;;;;4958043;29;20023;-78
2022/03/07 12:02:59;;;;;;;10.03;6.23;;;5.60;54.50;;;;;;4940631;29;20085;-79
2022/03/07 12:05:32;;;;;;;11.57;6.20;;;5.60;54.70;;;;;;4941086;29;20023;-78
2022/03/07 12:08:15;;;;;;;8.77;5.83;;;5.70;53.30;;;;;;4940477;29;20031;-78
2022/03/07 12:10:59;;;;;;;11.90;6.30;;;5.70;53.20;;;;;;4940353;29;20031;-80
2022/03/07 12:13:26;;;;;;;12.83;6.40;;;5.80;54.20;;;;;;4926944;29;20066;-79
2022/03/07 12:15:53;;;;;;;12.87;6.27;;;6.00;54.60;;;;;;4940261;29;20059;-79
2022/03/07 12:18:20;;;;;;;11.40;6.17;;;6.10;53.40;;;;;;4931406;29;20031;-77
2022/03/07 12:20:55;;;;;;;9.23;5.97;;;6.20;52.10;;;;;;4918914;29;20031;-78
2022/03/07 12:23:24;;;;;;;10.90;6.17;;;6.30;51.90;;;;;;4950047;29;20030;-77
2022/03/07 12:26:02;;;;;;;9.80;6.80;;;6.40;52.80;;;;;;4934541;29;20032;-78
2022/03/07 12:28:34;;;;;;;11.10;6.00;;;6.60;52.20;;;;;;4925801;29;20032;-77
2022/03/07 12:31:01;;;;;;;11.63;6.82;;;6.80;50.50;;;;;;4954420;29;20376;-78
2022/03/07 12:33:27;;;;;;;11.03;6.40;;;6.90;50.10;;;;;;4952652;29;20043;-77
2022/03/07 12:36:07;;;;;;;10.90;6.20;;;7.00;49.30;;;;;;4939655;29;20050;-76
2022/03/07 12:38:33;;;;;;;11.67;6.40;;;7.10;49.20;;;;;;4951244;29;20082;-75
2022/03/07 12:40:59;;;;;;;10.97;6.33;;;7.20;48.30;;;;;;4938716;29;20039;-74
2022/03/07 12:43:26;;;;;;;13.77;6.83;;;7.40;50.70;;;;;;4939256;29;20125;-75
2022/03/07 12:45:56;;;;;;;9.97;6.00;;;7.70;49.00;;;;;;4939227;29;20058;-76
2022/03/07 12:48:35;;;;;;;10.47;6.73;;;8.00;48.10;;;;;;4939064;29;20114;-76
2022/03/07 12:51:07;;;;;;;10.40;6.80;;;8.20;47.30;;;;;;4937449;29;20027;-76
2022/03/07 12:53:54;;;;;;;10.40;6.80;;;8.40;46.80;;;;;;4955956;29;20041;-77
2022/03/07 12:56:25;;;;;;;10.07;6.00;;;8.60;46.30;;;;;;4938834;29;20058;-76
2022/03/07 12:58:57;;;;;;;10.57;6.47;;;8.80;45.80;;;;;;4938802;29;20038;-78
2022/03/07 13:01:27;;;;;;;10.25;6.60;;;8.90;44.70;;;;;;4938796;29;20027;-74
2022/03/07 13:03:54;;;;;;;11.25;6.53;;;9.00;44.80;;;;;;4921491;29;20501;-79
2022/03/07 13:06:25;;;;;;;10.95;6.65;;;9.40;44.80;;;;;;4933008;29;20043;-78